createdAt,value
2022-09-28T00:00:24.044Z,22.00
2022-09-28T00:02:26.492Z,22.00
2022-09-28T00:04:28.228Z,22.00
2022-09-28T00:06:30.868Z,22.00
2022-09-28T00:08:33.827Z,22.00
2022-09-28T00:10:35.441Z,22.00
2022-09-28T00:12:37.301Z,22.00
2022-09-28T00:14:40.503Z,22.00
2022-09-28T00:16:44.147Z,21.90
2022-09-28T00:18:46.322Z,21.90
2022-09-28T00:20:47.970Z,21.90
2022-09-28T00:22:49.654Z,21.90
2022-09-28T00:24:51.329Z,21.90
2022-09-28T00:26:55.505Z,21.90
2022-09-28T00:28:59.287Z,21.90
2022-09-28T00:31:01.081Z,21.90
2022-09-28T00:33:02.688Z,21.90
2022-09-28T00:35:04.656Z,21.90
2022-09-28T00:37:08.806Z,21.90
2022-09-28T00:39:10.420Z,21.80
2022-09-28T00:41:12.347Z,21.90
2022-09-28T00:43:20.836Z,21.80
2022-09-28T00:45:25.398Z,21.80
2022-09-28T00:47:33.864Z,21.80
2022-09-28T00:49:53.579Z,21.80
2022-09-28T00:51:55.500Z,21.90
2022-09-28T00:53:59.272Z,21.90
2022-09-28T00:56:09.100Z,21.80
2022-09-28T00:58:14.091Z,21.80
2022-09-28T01:00:16.272Z,21.80
2022-09-28T01:02:19.268Z,21.80
2022-09-28T01:04:25.000Z,21.90
2022-09-28T01:06:33.093Z,21.80
2022-09-28T01:08:36.032Z,21.80
2022-09-28T01:10:40.491Z,21.80
2022-09-28T01:12:42.097Z,21.80
2022-09-28T01:14:44.596Z,21.80
2022-09-28T01:17:14.767Z,21.80
2022-09-28T01:19:36.859Z,21.80
2022-09-28T01:22:08.924Z,21.80
2022-09-28T01:24:29.804Z,21.70
2022-09-28T01:26:44.440Z,21.70
2022-09-28T01:28:50.451Z,21.80
2022-09-28T01:31:10.703Z,21.80
2022-09-28T01:33:19.161Z,21.70
2022-09-28T01:35:36.068Z,21.70
2022-09-28T01:37:51.898Z,21.70
2022-09-28T01:39:55.812Z,21.80
2022-09-28T01:42:04.114Z,21.70
2022-09-28T01:44:08.659Z,21.70
2022-09-28T01:46:30.259Z,21.70
2022-09-28T01:48:54.125Z,21.70
2022-09-28T01:51:00.308Z,21.70
2022-09-28T01:53:24.972Z,21.70
2022-09-28T01:55:44.647Z,21.70
2022-09-28T01:57:52.702Z,21.70
2022-09-28T02:00:07.149Z,21.70
2022-09-28T02:02:18.505Z,21.70
2022-09-28T02:04:24.911Z,21.70
2022-09-28T02:06:33.057Z,21.70
2022-09-28T02:08:40.188Z,21.60
2022-09-28T02:10:52.348Z,21.70
2022-09-28T02:13:05.887Z,21.70
2022-09-28T02:15:35.135Z,21.70
2022-09-28T02:17:36.953Z,21.60
2022-09-28T02:19:39.930Z,21.60
2022-09-28T02:21:48.726Z,21.70
2022-09-28T02:24:02.650Z,21.70
2022-09-28T02:26:08.887Z,21.70
2022-09-28T02:28:13.286Z,21.60
2022-09-28T02:30:14.885Z,21.70
2022-09-28T02:32:19.591Z,21.60
2022-09-28T02:34:21.183Z,21.70
2022-09-28T02:36:24.764Z,21.60
2022-09-28T02:38:26.556Z,21.60
2022-09-28T02:40:37.714Z,21.60
2022-09-28T02:42:46.540Z,21.70
2022-09-28T02:45:06.675Z,21.60
2022-09-28T02:47:26.265Z,21.70
2022-09-28T02:49:40.466Z,21.60
2022-09-28T02:52:11.286Z,21.60
2022-09-28T02:55:00.873Z,21.60
2022-09-28T02:57:12.591Z,21.60
2022-09-28T02:59:39.831Z,21.50
2022-09-28T03:01:56.317Z,21.60
2022-09-28T03:04:25.991Z,21.60
2022-09-28T03:06:40.135Z,21.60
2022-09-28T03:09:00.135Z,21.60
2022-09-28T03:11:07.622Z,21.60
2022-09-28T03:13:09.725Z,21.60
2022-09-28T03:15:21.272Z,21.50
2022-09-28T03:17:22.884Z,21.60
2022-09-28T03:19:30.386Z,21.60
2022-09-28T03:21:31.964Z,21.60
2022-09-28T03:23:33.695Z,21.70
2022-09-28T03:25:35.289Z,21.70
2022-09-28T03:27:36.898Z,21.60
2022-09-28T03:29:39.354Z,21.70
2022-09-28T03:31:41.058Z,21.60
2022-09-28T03:33:42.704Z,21.60
2022-09-28T03:35:47.790Z,21.60
2022-09-28T03:37:49.383Z,21.60
2022-09-28T03:39:50.955Z,21.60
2022-09-28T03:41:52.536Z,21.60
2022-09-28T03:43:54.184Z,21.70
2022-09-28T03:45:58.814Z,21.60
2022-09-28T03:48:00.594Z,21.70
2022-09-28T03:50:02.338Z,21.80
2022-09-28T03:52:04.469Z,21.80
2022-09-28T03:54:06.176Z,21.80
2022-09-28T03:56:12.688Z,21.80
2022-09-28T03:58:14.407Z,21.80
2022-09-28T04:00:16.087Z,21.70
2022-09-28T04:02:17.817Z,21.70
2022-09-28T04:04:19.465Z,21.70
2022-09-28T04:06:21.164Z,21.80
2022-09-28T04:08:22.763Z,21.80
2022-09-28T04:10:27.486Z,21.80
2022-09-28T04:12:29.103Z,21.80
2022-09-28T04:14:30.692Z,21.90
2022-09-28T04:16:32.343Z,21.90
2022-09-28T04:18:35.119Z,22.10
2022-09-28T04:20:36.873Z,22.10
2022-09-28T04:22:38.503Z,22.10
2022-09-28T04:24:42.057Z,22.00
2022-09-28T04:26:43.687Z,22.00
2022-09-28T04:29:06.792Z,22.00
2022-09-28T04:31:14.860Z,22.10
2022-09-28T04:33:16.512Z,22.10
2022-09-28T04:35:18.215Z,22.20
2022-09-28T04:37:19.865Z,22.30
2022-09-28T04:39:21.494Z,22.30
2022-09-28T04:41:23.223Z,22.20
2022-09-28T04:43:24.825Z,22.10
2022-09-28T04:45:26.896Z,22.00
2022-09-28T04:47:30.429Z,22.10
2022-09-28T04:49:32.108Z,22.10
2022-09-28T04:51:33.744Z,22.10
2022-09-28T04:53:35.382Z,22.10
2022-09-28T04:55:36.972Z,22.20
2022-09-28T04:57:38.559Z,22.20
2022-09-28T04:59:40.164Z,22.20
2022-09-28T05:01:42.062Z,22.10
2022-09-28T05:03:43.953Z,22.20
2022-09-28T05:05:46.532Z,22.20
2022-09-28T05:07:48.128Z,22.10
2022-09-28T05:09:50.340Z,22.10
2022-09-28T05:11:55.001Z,22.10
2022-09-28T05:13:56.669Z,22.10
2022-09-28T05:16:04.439Z,22.10
2022-09-28T05:18:07.567Z,22.10
2022-09-28T05:20:09.535Z,22.00
2022-09-28T05:22:14.696Z,22.10
2022-09-28T05:24:16.315Z,22.00
2022-09-28T05:26:18.211Z,21.90
2022-09-28T05:28:25.890Z,22.00
2022-09-28T05:30:27.475Z,21.90
2022-09-28T05:32:29.083Z,22.00
2022-09-28T05:34:30.718Z,22.00
2022-09-28T05:36:32.564Z,22.00
2022-09-28T05:38:34.280Z,22.00
2022-09-28T05:40:35.961Z,22.00
2022-09-28T05:42:37.696Z,22.00
2022-09-28T05:44:39.283Z,22.00
2022-09-28T05:46:40.900Z,22.00
2022-09-28T05:48:42.570Z,22.00
2022-09-28T05:50:44.204Z,22.00
2022-09-28T05:52:46.693Z,22.00
2022-09-28T05:54:48.583Z,22.00
2022-09-28T05:56:50.160Z,22.00
2022-09-28T05:58:51.734Z,21.90
2022-09-28T06:00:57.284Z,21.90
2022-09-28T06:03:08.735Z,21.90
2022-09-28T06:05:11.008Z,21.90
2022-09-28T06:07:12.657Z,22.00
2022-09-28T06:09:14.256Z,22.00
2022-09-28T06:11:15.888Z,21.90
2022-09-28T06:13:17.491Z,21.90
2022-09-28T06:15:19.234Z,21.90
2022-09-28T06:17:20.859Z,21.90
2022-09-28T06:19:22.495Z,21.90
2022-09-28T06:21:24.128Z,21.90
2022-09-28T06:23:25.733Z,21.90
2022-09-28T06:25:27.636Z,21.90
2022-09-28T06:27:29.324Z,21.80
2022-09-28T06:29:31.242Z,21.90
2022-09-28T06:31:32.887Z,21.80
2022-09-28T06:33:35.596Z,21.90
2022-09-28T06:35:37.245Z,21.90
2022-09-28T06:37:39.075Z,21.90
2022-09-28T06:39:40.684Z,21.90
2022-09-28T06:41:42.289Z,21.90
2022-09-28T06:43:44.727Z,21.80
2022-09-28T06:45:52.085Z,21.80
2022-09-28T06:47:58.605Z,21.90
2022-09-28T06:50:00.470Z,21.90
2022-09-28T06:52:02.088Z,21.80
2022-09-28T06:54:04.061Z,21.80
2022-09-28T06:56:09.159Z,21.80
2022-09-28T06:58:12.296Z,21.90
2022-09-28T07:00:14.815Z,21.90
2022-09-28T07:02:16.573Z,21.80
2022-09-28T07:04:18.351Z,21.80
2022-09-28T07:06:21.025Z,21.90
2022-09-28T07:08:24.707Z,21.90
2022-09-28T07:10:28.095Z,21.90
2022-09-28T07:12:32.163Z,21.90
2022-09-28T07:14:46.988Z,21.90
2022-09-28T07:17:11.474Z,21.90
2022-09-28T07:19:11.190Z,21.90
2022-09-28T07:21:24.610Z,21.80
2022-09-28T07:23:30.478Z,21.90
2022-09-28T07:25:36.908Z,21.90
2022-09-28T07:27:39.472Z,21.90
2022-09-28T07:29:41.080Z,21.90
2022-09-28T07:31:42.703Z,21.80
2022-09-28T07:33:44.744Z,21.80
2022-09-28T07:35:55.120Z,21.80
2022-09-28T07:38:10.336Z,21.80
2022-09-28T07:40:31.329Z,21.80
2022-09-28T07:42:33.088Z,21.80
2022-09-28T07:44:36.535Z,21.80
2022-09-28T07:46:38.208Z,21.80
2022-09-28T07:48:41.301Z,21.80
2022-09-28T07:51:03.637Z,21.80
2022-09-28T07:53:05.230Z,21.80
2022-09-28T07:55:07.687Z,21.80
2022-09-28T07:57:09.308Z,21.80
2022-09-28T07:59:11.225Z,21.80
2022-09-28T08:01:15.458Z,21.80
2022-09-28T08:03:19.009Z,21.80
2022-09-28T08:05:20.641Z,21.80
2022-09-28T08:07:24.184Z,21.80
2022-09-28T08:09:25.988Z,21.80
2022-09-28T08:11:27.638Z,21.80
2022-09-28T08:13:29.534Z,21.80
2022-09-28T08:15:38.171Z,21.80
2022-09-28T08:17:39.801Z,21.80
2022-09-28T08:20:00.152Z,21.80
2022-09-28T08:22:01.777Z,21.80
2022-09-28T08:24:03.545Z,21.80
2022-09-28T08:26:05.554Z,21.80
2022-09-28T08:28:07.411Z,21.80
2022-09-28T08:30:09.633Z,21.90
2022-09-28T08:32:11.344Z,21.80
2022-09-28T08:34:13.594Z,21.80
2022-09-28T08:36:15.456Z,21.80
2022-09-28T08:38:18.272Z,21.80
2022-09-28T08:40:25.339Z,21.80
2022-09-28T08:42:40.878Z,21.80
2022-09-28T08:44:49.152Z,21.80
2022-09-28T08:47:30.387Z,21.80
2022-09-28T08:49:47.376Z,21.80
2022-09-28T08:52:05.689Z,21.80
2022-09-28T08:54:33.304Z,21.80
2022-09-28T08:56:40.932Z,21.80
2022-09-28T08:58:45.772Z,21.80
2022-09-28T09:00:50.284Z,21.80
2022-09-28T09:02:51.999Z,21.80
2022-09-28T09:04:54.281Z,21.90
2022-09-28T09:07:23.096Z,21.90
2022-09-28T09:09:48.550Z,21.90
2022-09-28T09:12:08.155Z,21.90
2022-09-28T09:14:21.679Z,21.90
2022-09-28T09:17:00.276Z,21.90
2022-09-28T09:19:19.618Z,21.90
2022-09-28T09:21:47.463Z,22.00
2022-09-28T09:23:56.897Z,21.90
2022-09-28T09:26:14.211Z,21.90
2022-09-28T09:28:35.251Z,21.90
2022-09-28T09:30:56.732Z,21.90
2022-09-28T09:33:32.442Z,21.90
2022-09-28T09:35:39.992Z,21.90
2022-09-28T09:38:00.115Z,21.90
2022-09-28T09:40:20.134Z,21.90
2022-09-28T09:42:37.469Z,21.90
2022-09-28T09:45:02.838Z,22.00
2022-09-28T09:47:26.257Z,22.00
2022-09-28T09:49:38.677Z,21.90
2022-09-28T09:51:49.302Z,21.90
2022-09-28T09:54:03.862Z,21.90
2022-09-28T09:56:16.535Z,21.90
2022-09-28T09:58:24.092Z,21.90
2022-09-28T10:00:25.854Z,22.00
2022-09-28T10:02:34.693Z,22.00
2022-09-28T10:04:43.152Z,22.00
2022-09-28T10:06:47.133Z,22.00
2022-09-28T10:08:58.343Z,22.00
2022-09-28T10:11:24.930Z,22.00
2022-09-28T10:13:26.523Z,22.00
2022-09-28T10:15:30.889Z,22.00
2022-09-28T10:17:33.613Z,22.00
2022-09-28T10:19:36.546Z,22.00
2022-09-28T10:21:40.501Z,22.00
2022-09-28T10:23:43.479Z,22.00
2022-09-28T10:25:47.411Z,22.00
2022-09-28T10:27:52.381Z,22.00
2022-09-28T10:29:57.783Z,22.00
2022-09-28T10:31:59.449Z,22.00
2022-09-28T10:34:01.496Z,22.00
2022-09-28T10:36:06.691Z,22.10
2022-09-28T10:38:18.994Z,22.10
2022-09-28T10:40:47.132Z,22.10
2022-09-28T10:42:48.954Z,22.10
2022-09-28T10:44:54.966Z,22.10
2022-09-28T10:47:02.980Z,22.00
2022-09-28T10:49:17.311Z,22.10
2022-09-28T10:51:19.128Z,22.10
2022-09-28T10:53:21.260Z,22.10
2022-09-28T10:55:25.642Z,22.10
2022-09-28T10:57:36.686Z,22.10
2022-09-28T10:59:39.757Z,22.10
2022-09-28T11:01:41.614Z,22.10
2022-09-28T11:03:57.008Z,22.10
2022-09-28T11:06:07.409Z,22.10
2022-09-28T11:08:27.668Z,22.00
2022-09-28T11:10:32.818Z,22.10
2022-09-28T11:12:43.764Z,22.00
2022-09-28T11:14:46.651Z,22.10
2022-09-28T11:16:48.375Z,22.10
2022-09-28T11:18:50.816Z,22.10
2022-09-28T11:20:52.559Z,22.20
2022-09-28T11:22:59.313Z,22.10
2022-09-28T11:25:24.360Z,22.20
2022-09-28T11:27:27.387Z,22.20
2022-09-28T11:29:42.967Z,22.20
2022-09-28T11:31:44.614Z,22.20
2022-09-28T11:33:47.369Z,22.20
2022-09-28T11:36:14.578Z,22.20
2022-09-28T11:38:45.999Z,22.20
2022-09-28T11:41:20.404Z,22.20
2022-09-28T11:43:24.787Z,22.30
2022-09-28T11:45:48.519Z,22.40
2022-09-28T11:48:02.576Z,22.30
2022-09-28T11:50:23.688Z,22.40
2022-09-28T11:52:43.560Z,22.40
2022-09-28T11:54:52.101Z,22.40
2022-09-28T11:56:53.938Z,22.30
2022-09-28T11:59:05.759Z,22.40
2022-09-28T12:01:25.994Z,22.40
2022-09-28T12:03:43.188Z,22.40
2022-09-28T12:05:52.026Z,22.40
2022-09-28T12:08:15.967Z,22.40
2022-09-28T12:10:51.743Z,22.40
2022-09-28T12:13:18.731Z,22.40
2022-09-28T12:15:26.621Z,22.40
2022-09-28T12:17:38.895Z,22.50
2022-09-28T12:19:53.399Z,22.50
2022-09-28T12:22:09.765Z,22.40
2022-09-28T12:24:18.820Z,22.40
2022-09-28T12:26:43.933Z,22.40
2022-09-28T12:28:49.319Z,22.40
2022-09-28T12:30:52.365Z,22.50
2022-09-28T12:33:00.162Z,22.40
2022-09-28T12:35:03.247Z,22.50
2022-09-28T12:37:18.500Z,22.50
2022-09-28T12:39:56.558Z,22.50
2022-09-28T12:42:05.323Z,22.50
2022-09-28T12:44:28.725Z,22.60
2022-09-28T12:46:56.678Z,22.60
2022-09-28T12:50:36.346Z,22.60
2022-09-28T12:52:00.224Z,22.50
2022-09-28T12:54:13.868Z,22.50
2022-09-28T12:56:34.428Z,22.50
2022-09-28T12:59:18.723Z,22.50
2022-09-28T13:01:54.383Z,22.50
2022-09-28T13:04:05.414Z,22.50
2022-09-28T13:06:10.007Z,22.50
2022-09-28T13:08:25.290Z,22.40
2022-09-28T13:10:35.112Z,22.50
2022-09-28T13:12:45.340Z,22.50
2022-09-28T13:15:05.566Z,22.50
2022-09-28T13:17:42.618Z,22.50
2022-09-28T13:19:57.748Z,22.50
2022-09-28T13:22:35.957Z,22.50
2022-09-28T13:24:44.142Z,22.50
2022-09-28T13:26:47.800Z,22.50
2022-09-28T13:28:54.603Z,22.40
2022-09-28T13:33:03.819Z,22.40
2022-09-28T13:35:06.300Z,22.40
2022-09-28T13:37:07.883Z,22.50
2022-09-28T13:39:34.532Z,22.40
2022-09-28T13:41:40.359Z,22.40
2022-09-28T13:44:05.737Z,22.40
2022-09-28T13:46:20.127Z,22.40
2022-09-28T13:48:44.340Z,22.40
2022-09-28T13:51:04.560Z,22.40
2022-09-28T13:53:28.224Z,22.40
2022-09-28T13:55:48.974Z,22.40
2022-09-28T13:58:04.414Z,22.40
2022-09-28T14:00:12.196Z,22.40
2022-09-28T14:02:23.158Z,22.40
2022-09-28T14:04:47.566Z,22.60
2022-09-28T14:07:16.640Z,22.50
2022-09-28T14:09:44.331Z,22.50
2022-09-28T14:11:59.436Z,22.50
2022-09-28T14:14:05.093Z,22.50
2022-09-28T14:16:19.334Z,22.50
2022-09-28T14:18:31.107Z,22.50
2022-09-28T14:20:35.300Z,22.40
2022-09-28T14:22:47.107Z,22.40
2022-09-28T14:25:20.733Z,22.40
2022-09-28T14:27:34.331Z,22.50
2022-09-28T14:29:38.150Z,22.40
2022-09-28T14:31:43.652Z,22.50
2022-09-28T14:33:56.748Z,22.40
2022-09-28T14:36:02.099Z,22.50
2022-09-28T14:38:35.029Z,22.50
2022-09-28T14:41:11.260Z,22.50
2022-09-28T14:43:37.328Z,22.40
2022-09-28T14:45:44.229Z,22.50
2022-09-28T14:48:19.286Z,22.50
2022-09-28T14:50:25.603Z,22.50
2022-09-28T14:52:47.576Z,22.60
2022-09-28T14:54:54.455Z,22.50
2022-09-28T14:57:12.483Z,22.60
2022-09-28T14:59:22.805Z,22.60
2022-09-28T15:01:25.881Z,22.60
2022-09-28T15:03:30.927Z,22.60
2022-09-28T15:05:42.488Z,22.60
2022-09-28T15:07:48.021Z,22.70
2022-09-28T15:09:51.959Z,22.80
2022-09-28T15:11:58.467Z,22.70
2022-09-28T15:14:08.204Z,22.70
2022-09-28T15:16:13.725Z,22.70
2022-09-28T15:18:38.548Z,22.70
2022-09-28T15:20:41.976Z,22.80
2022-09-28T15:22:48.736Z,22.70
2022-09-28T15:25:02.398Z,22.70
2022-09-28T15:27:15.600Z,22.80
2022-09-28T15:29:19.436Z,22.70
2022-09-28T15:31:26.932Z,22.70
2022-09-28T15:33:53.036Z,22.70
2022-09-28T15:36:07.308Z,22.70
2022-09-28T15:38:17.162Z,22.80
2022-09-28T15:40:31.557Z,22.80
2022-09-28T15:42:37.036Z,22.80
2022-09-28T15:44:42.908Z,22.80
2022-09-28T15:46:52.048Z,22.70
2022-09-28T15:48:57.195Z,22.60
2022-09-28T15:51:11.786Z,22.60
2022-09-28T15:53:18.623Z,22.50
2022-09-28T15:55:31.403Z,22.60
2022-09-28T15:57:40.218Z,22.60
2022-09-28T15:59:43.836Z,22.50
2022-09-28T16:01:45.942Z,22.50
2022-09-28T16:03:47.645Z,22.50
2022-09-28T16:05:50.721Z,22.60
2022-09-28T16:07:56.242Z,22.50
2022-09-28T16:10:12.185Z,22.60
2022-09-28T16:12:13.818Z,22.60
2022-09-28T16:14:20.946Z,22.60
2022-09-28T16:16:27.825Z,22.70
2022-09-28T16:18:31.044Z,22.90
2022-09-28T16:20:34.004Z,22.90
2022-09-28T16:22:35.641Z,23.00
2022-09-28T16:24:38.871Z,23.00
2022-09-28T16:26:40.518Z,22.90
2022-09-28T16:28:45.780Z,22.80
2022-09-28T16:31:05.554Z,22.70
2022-09-28T16:33:28.438Z,22.60
2022-09-28T16:35:32.987Z,22.60
2022-09-28T16:37:36.701Z,22.60
2022-09-28T16:39:38.958Z,22.60
2022-09-28T16:41:44.109Z,22.60
2022-09-28T16:43:46.258Z,22.60
2022-09-28T16:45:47.901Z,22.70
2022-09-28T16:47:54.558Z,22.70
2022-09-28T16:49:56.283Z,22.70
2022-09-28T16:51:57.869Z,22.70
2022-09-28T16:54:32.027Z,22.70
2022-09-28T16:56:36.114Z,22.70
2022-09-28T16:58:38.885Z,22.70
2022-09-28T17:00:43.456Z,22.70
2022-09-28T17:02:47.087Z,22.70
2022-09-28T17:04:48.871Z,22.70
2022-09-28T17:06:55.461Z,22.70
2022-09-28T17:08:58.585Z,22.70
2022-09-28T17:11:24.040Z,22.70
2022-09-28T17:13:33.820Z,22.70
2022-09-28T17:15:35.675Z,22.60
2022-09-28T17:17:38.366Z,22.60
2022-09-28T17:19:40.096Z,22.50
2022-09-28T17:21:41.806Z,22.50
2022-09-28T17:23:47.578Z,22.50
2022-09-28T17:25:49.321Z,22.50
2022-09-28T17:27:51.760Z,22.40
2022-09-28T17:29:53.354Z,22.40
2022-09-28T17:31:55.136Z,22.50
2022-09-28T17:33:56.853Z,22.50
2022-09-28T17:36:05.083Z,22.40
2022-09-28T17:38:06.851Z,22.40
2022-09-28T17:40:29.324Z,22.40
2022-09-28T17:42:30.967Z,22.40
2022-09-28T17:44:32.580Z,22.40
2022-09-28T17:46:37.250Z,22.30
2022-09-28T17:48:39.026Z,22.30
2022-09-28T17:50:45.614Z,22.30
2022-09-28T17:52:59.754Z,22.30
2022-09-28T17:55:01.364Z,22.30
2022-09-28T17:57:02.996Z,22.30
2022-09-28T17:59:12.582Z,22.40
2022-09-28T18:01:14.223Z,22.40
2022-09-28T18:03:23.962Z,22.30
2022-09-28T18:05:28.237Z,22.30
2022-09-28T18:07:31.047Z,22.20
2022-09-28T18:09:32.663Z,22.30
2022-09-28T18:11:35.174Z,22.30
2022-09-28T18:13:37.084Z,22.30
2022-09-28T18:15:38.800Z,22.30
2022-09-28T18:17:40.762Z,22.50
2022-09-28T18:19:42.345Z,22.70
2022-09-28T18:21:43.956Z,22.80
2022-09-28T18:23:45.593Z,22.70
2022-09-28T18:25:47.326Z,22.60
2022-09-28T18:27:48.977Z,22.60
2022-09-28T18:29:50.693Z,22.60
2022-09-28T18:31:52.444Z,22.60
2022-09-28T18:33:59.815Z,22.60
2022-09-28T18:36:01.791Z,22.60
2022-09-28T18:38:05.314Z,22.70
2022-09-28T18:40:09.193Z,22.60
2022-09-28T18:42:11.014Z,22.50
2022-09-28T18:44:12.619Z,22.50
2022-09-28T18:46:14.257Z,22.50
2022-09-28T18:48:16.123Z,22.50
2022-09-28T18:50:18.043Z,22.50
2022-09-28T18:52:19.681Z,22.50
2022-09-28T18:54:21.407Z,22.40
2022-09-28T18:56:23.064Z,22.40
2022-09-28T18:58:24.691Z,22.30
2022-09-28T19:00:26.338Z,22.30
2022-09-28T19:02:28.146Z,22.30
2022-09-28T19:04:30.174Z,22.30
2022-09-28T19:06:34.221Z,22.30
2022-09-28T19:08:36.349Z,22.30
2022-09-28T19:10:37.943Z,22.30
2022-09-28T19:12:39.556Z,22.30
2022-09-28T19:14:41.153Z,22.20
2022-09-28T19:16:44.630Z,22.30
2022-09-28T19:18:46.576Z,22.30
2022-09-28T19:20:48.169Z,22.20
2022-09-28T19:22:50.551Z,22.20
2022-09-28T19:24:52.223Z,22.20
2022-09-28T19:26:53.872Z,22.20
2022-09-28T19:28:56.674Z,22.20
2022-09-28T19:31:04.466Z,22.20
2022-09-28T19:33:06.071Z,22.20
2022-09-28T19:35:08.227Z,22.20
2022-09-28T19:37:09.817Z,22.20
2022-09-28T19:39:14.459Z,22.30
2022-09-28T19:41:43.914Z,22.30
2022-09-28T19:43:46.087Z,22.30
2022-09-28T19:45:52.224Z,22.20
2022-09-28T19:47:58.662Z,22.30
2022-09-28T19:50:00.947Z,22.30
2022-09-28T19:52:13.937Z,22.20
2022-09-28T19:54:18.031Z,22.20
2022-09-28T19:56:19.650Z,22.20
2022-09-28T19:58:22.855Z,22.10
2022-09-28T20:00:24.532Z,22.10
2022-09-28T20:02:26.222Z,22.20
2022-09-28T20:04:27.846Z,22.20
2022-09-28T20:06:31.263Z,22.20
2022-09-28T20:08:32.924Z,22.20
2022-09-28T20:10:34.664Z,22.20
2022-09-28T20:12:36.340Z,22.20
2022-09-28T20:14:40.303Z,22.10
2022-09-28T20:16:42.231Z,22.20
2022-09-28T20:18:50.047Z,22.20
2022-09-28T20:21:07.944Z,22.20
2022-09-28T20:23:09.663Z,22.20
2022-09-28T20:25:11.295Z,22.20
2022-09-28T20:27:12.889Z,22.20
2022-09-28T20:29:14.527Z,22.10
2022-09-28T20:31:20.395Z,22.10
2022-09-28T20:33:28.524Z,22.10
2022-09-28T20:35:33.205Z,22.10
2022-09-28T20:37:34.995Z,22.10
2022-09-28T20:39:37.900Z,22.10
2022-09-28T20:41:41.174Z,22.10
2022-09-28T20:43:42.800Z,22.10
2022-09-28T20:45:45.100Z,22.10
2022-09-28T20:47:46.725Z,22.10
2022-09-28T20:49:48.300Z,22.10
2022-09-28T20:51:49.936Z,22.10
2022-09-28T20:53:56.941Z,22.00
2022-09-28T20:56:12.896Z,22.10
2022-09-28T20:58:14.479Z,22.10
2022-09-28T21:00:16.164Z,22.10
2022-09-28T21:02:17.928Z,22.10
2022-09-28T21:04:19.738Z,22.10
2022-09-28T21:06:24.120Z,22.00
2022-09-28T21:08:25.761Z,22.00
2022-09-28T21:10:30.183Z,22.10
2022-09-28T21:12:34.107Z,22.10
2022-09-28T21:14:35.707Z,22.00
2022-09-28T21:16:37.702Z,22.00
2022-09-28T21:18:39.931Z,22.00
2022-09-28T21:20:46.386Z,22.00
2022-09-28T21:22:48.010Z,22.00
2022-09-28T21:24:49.600Z,22.00
2022-09-28T21:26:51.304Z,22.00
2022-09-28T21:28:53.814Z,22.00
2022-09-28T21:30:55.577Z,22.00
2022-09-28T21:32:58.018Z,22.00
2022-09-28T21:34:59.603Z,22.00
2022-09-28T21:37:01.247Z,22.00
2022-09-28T21:39:05.010Z,22.00
2022-09-28T21:41:10.055Z,22.00
2022-09-28T21:43:11.688Z,22.00
2022-09-28T21:45:13.352Z,22.00
2022-09-28T21:47:14.953Z,22.00
2022-09-28T21:49:16.595Z,22.00
2022-09-28T21:51:18.281Z,22.00
2022-09-28T21:53:19.904Z,22.00
2022-09-28T21:55:23.292Z,22.00
2022-09-28T21:57:24.877Z,22.00
2022-09-28T21:59:26.476Z,22.00
2022-09-28T22:01:28.995Z,22.00
2022-09-28T22:03:32.163Z,22.00
2022-09-28T22:05:33.880Z,22.00
2022-09-28T22:07:35.575Z,22.00
2022-09-28T22:09:37.164Z,22.00
2022-09-28T22:11:38.842Z,22.00
2022-09-28T22:13:42.608Z,22.00
2022-09-28T22:15:44.235Z,22.00
2022-09-28T22:17:45.880Z,22.00
2022-09-28T22:19:47.504Z,22.10
2022-09-28T22:21:49.100Z,22.10
2022-09-28T22:23:51.191Z,22.10
2022-09-28T22:26:01.579Z,22.00
2022-09-28T22:28:03.281Z,22.10
2022-09-28T22:30:05.405Z,22.00
2022-09-28T22:32:07.550Z,22.00
2022-09-28T22:34:09.818Z,22.00
2022-09-28T22:36:11.653Z,22.00
2022-09-28T22:38:13.288Z,22.00
2022-09-28T22:40:14.975Z,22.00
2022-09-28T22:42:17.235Z,22.00
2022-09-28T22:44:19.822Z,21.90
2022-09-28T22:46:27.483Z,21.90
2022-09-28T22:48:29.542Z,21.90
2022-09-28T22:50:31.480Z,22.00
2022-09-28T22:52:33.076Z,22.00
2022-09-28T22:54:34.942Z,21.90
2022-09-28T22:56:36.549Z,21.90
2022-09-28T22:58:38.970Z,21.90
2022-09-28T23:00:40.737Z,22.00
2022-09-28T23:02:42.393Z,22.00
2022-09-28T23:04:44.031Z,22.00
2022-09-28T23:06:45.709Z,21.90
2022-09-28T23:08:48.296Z,21.90
2022-09-28T23:10:51.038Z,21.90
2022-09-28T23:12:56.781Z,21.90
2022-09-28T23:14:58.440Z,21.90
2022-09-28T23:17:00.235Z,21.90
2022-09-28T23:19:01.879Z,21.90
2022-09-28T23:21:06.741Z,21.90
2022-09-28T23:23:08.343Z,21.90
2022-09-28T23:25:09.939Z,21.90
2022-09-28T23:27:11.555Z,21.80
2022-09-28T23:29:13.334Z,21.80
2022-09-28T23:31:26.571Z,21.80
2022-09-28T23:33:28.257Z,21.90
2022-09-28T23:35:29.862Z,21.80
2022-09-28T23:37:31.468Z,21.90
2022-09-28T23:39:33.073Z,21.90
2022-09-28T23:41:34.685Z,21.80
2022-09-28T23:43:36.658Z,21.90
2022-09-28T23:45:38.262Z,21.90
2022-09-28T23:47:39.866Z,21.80
2022-09-28T23:49:41.527Z,21.80
2022-09-28T23:51:43.116Z,21.80
2022-09-28T23:53:45.096Z,21.80
2022-09-28T23:55:46.730Z,21.80
2022-09-28T23:57:48.319Z,21.80
2022-09-28T23:59:49.963Z,21.80
